Georg Jacob — A8XG5 — position and weather

sailwx.info

Track history (hours):
 
Tides and Currents Weather Stations Pressure Air Temp Water Temp Dewpoint Dewpoint Depression Visibility Wind Speed Wind Dir Waves Ship Positions

Georg Jacob

Last reported at 2014-Dec-01 23:03 UTC. Time now 2014-Dec-20 20:52 UTC.
Position N 50°10' W 001°53'.
Warning: this ship's position is 18 days out of date.

Length 229 m; draft 13.5 m.

Type: Tanker. MMSI: 636092136.

Date/timePositionNaut miles runAvg speedWind from/ knotsBaromVisibWave heightAir tempDewpointWater temp
2014-Dec-01 23:03N 50°10' W 001°53'5912.9
2014-Dec-01 18:30N 50°26' W 000°24'1210.8
2014-Dec-01 17:21N 50°29' W 000°05'810.1
2014-Dec-01 16:30N 50°31' E 000°07'9 9.8
2014-Dec-01 15:33N 50°34' E 000°22'10 9.9
2014-Dec-01 14:33N 50°37' E 000°36'1111.2
2014-Dec-01 13:33N 50°44' E 000°50'1211.9
2014-Dec-01 12:32N 50°51' E 001°06'1211.9
2014-Dec-01 11:32N 50°59' E 001°19'1111.2
2014-Dec-01 10:33N 51°07' E 001°32'1010.3
2014-Dec-01 09:34N 51°13' E 001°45'10 9.8
2014-Dec-01 08:33N 51°22' E 001°51'10 9.8
2014-Dec-01 07:33N 51°30' E 001°60'1110.6
2014-Dec-01 06:33N 51°38' E 002°11'1211.1
2014-Dec-01 05:31N 51°47' E 002°24'1112.0
2014-Dec-01 04:34N 51°55' E 002°37'1212.3
2014-Dec-01 03:34N 52°04' E 002°50'1312.4
2014-Dec-01 02:33N 52°13' E 003°04'1212.1
2014-Dec-01 01:33N 52°22' E 003°18'1111.0
2014-Dec-01 00:32N 52°28' E 003°33'1111.0
2014-Nov-30 23:33N 52°31' E 003°50'1010.5
2014-Nov-30 22:33N 52°31' E 004°07'1010.2
2014-Nov-30 21:33N 52°29' E 004°24'8 7.8
2014-Nov-30 20:34N 52°28' E 004°36'1 1.0
2014-Nov-30 19:33N 52°28' E 004°38'6 6.4
2014-Nov-30 18:33N 52°25' E 004°48'2 1.6
2014-Nov-30 17:33N 52°25' E 004°50'0 0.0
2014-Nov-30 16:33N 52°25' E 004°50'0 0.0
2014-Nov-30 15:33N 52°25' E 004°50'0 0.0
2014-Nov-30 14:33N 52°25' E 004°50'0 0.0
2014-Nov-30 13:33N 52°25' E 004°50'0 0.0
2014-Nov-30 12:33N 52°25' E 004°50'0 0.0
2014-Nov-30 11:33N 52°25' E 004°50'0 0.0
2014-Nov-30 10:33N 52°25' E 004°50'0 0.0
2014-Nov-30 09:33N 52°25' E 004°50'0 0.0
2014-Nov-30 08:33N 52°25' E 004°50'0 0.0
2014-Nov-30 07:30N 52°25' E 004°50'0 0.0
2014-Nov-30 06:33N 52°25' E 004°50'0 0.0
2014-Nov-30 05:33N 52°25' E 004°50'0 0.0
2014-Nov-30 04:30N 52°25' E 004°50'0 0.0
2014-Nov-30 03:33N 52°25' E 004°50'0 0.0
2014-Nov-30 02:33N 52°25' E 004°50'0 0.0
2014-Nov-30 01:33N 52°25' E 004°50'0 0.0
2014-Nov-30 00:33N 52°25' E 004°50'0 0.0
2014-Nov-29 23:33N 52°25' E 004°50'0 0.0
2014-Nov-29 22:33N 52°25' E 004°50'0 0.0
2014-Nov-29 21:33N 52°25' E 004°50'0 0.0
2014-Nov-29 20:30N 52°25' E 004°50'0 0.0
2014-Nov-29 19:33N 52°25' E 004°50'0 0.0
2014-Nov-29 18:33N 52°25' E 004°50'0 0.0
2014-Nov-29 17:33N 52°25' E 004°50'0 0.0
2014-Nov-29 16:33N 52°25' E 004°50'0 0.0
2014-Nov-29 15:33N 52°25' E 004°50'0 0.0
2014-Nov-29 14:33N 52°25' E 004°50'0 0.0
2014-Nov-29 13:33N 52°25' E 004°50'0 0.0
2014-Nov-29 12:33N 52°25' E 004°50'0 0.0
2014-Nov-29 11:33N 52°25' E 004°50'0 0.0
2014-Nov-29 10:33N 52°25' E 004°50'0 0.0
2014-Nov-29 09:33N 52°25' E 004°50'0 0.0
2014-Nov-29 08:33N 52°25' E 004°50'0 0.0
2014-Nov-29 07:33N 52°25' E 004°50'0 0.0
2014-Nov-29 06:33N 52°25' E 004°50'0 0.0
2014-Nov-29 05:33N 52°25' E 004°50'0 0.0
2014-Nov-29 04:33N 52°25' E 004°50'0 0.0
2014-Nov-29 03:33N 52°25' E 004°50'0 0.0
2014-Nov-29 02:33N 52°25' E 004°50'0 0.0
2014-Nov-29 01:33N 52°25' E 004°50'0 0.0
2014-Nov-29 00:33N 52°25' E 004°50'0 0.0
2014-Nov-28 23:33N 52°25' E 004°50'0 0.0
2014-Nov-28 22:33N 52°25' E 004°50'0 0.0
2014-Nov-28 21:33N 52°25' E 004°50'0 0.0
2014-Nov-28 20:33N 52°25' E 004°50'0 0.0
2014-Nov-28 19:33N 52°25' E 004°50'0 0.0
2014-Nov-28 18:33N 52°25' E 004°50'0 0.0
2014-Nov-28 17:33N 52°25' E 004°50'0 0.0
2014-Nov-28 16:33N 52°25' E 004°50'0 0.0
2014-Nov-28 15:33N 52°25' E 004°50'0 0.0
2014-Nov-28 14:33N 52°25' E 004°50'0 0.0
2014-Nov-28 13:33N 52°25' E 004°50'0 0.0
2014-Nov-28 12:33N 52°25' E 004°50'0 0.0
2014-Nov-28 11:33N 52°25' E 004°50'0 0.0
2014-Nov-28 10:30N 52°25' E 004°50'0 0.0
2014-Nov-28 09:33N 52°25' E 004°50'0 0.0
2014-Nov-28 08:33N 52°25' E 004°50'0 0.0
2014-Nov-28 07:33N 52°25' E 004°50'0 0.0
2014-Nov-28 06:33N 52°25' E 004°50'0 0.0
2014-Nov-28 05:33N 52°25' E 004°50'0 0.0
2014-Nov-28 04:33N 52°25' E 004°50'0 0.0
2014-Nov-28 03:33N 52°25' E 004°50'0 0.0
2014-Nov-28 02:33N 52°25' E 004°50'0 0.0
2014-Nov-28 01:33N 52°25' E 004°50'0 0.0
2014-Nov-28 00:33N 52°25' E 004°50'0 0.0
2014-Nov-27 23:33N 52°25' E 004°50'0 0.0
2014-Nov-27 22:33N 52°25' E 004°50'0 0.0
2014-Nov-27 21:33N 52°25' E 004°50'0 0.0
2014-Nov-27 20:30N 52°25' E 004°50'0 0.0
2014-Nov-27 19:33N 52°25' E 004°50'0 0.0
2014-Nov-27 18:33N 52°25' E 004°50'0 0.0
2014-Nov-27 17:33N 52°25' E 004°50'0 0.0
2014-Nov-27 16:33N 52°25' E 004°50'0 0.0
2014-Nov-27 15:33N 52°25' E 004°50'0 0.0
2014-Nov-27 14:33N 52°25' E 004°50'0 0.0
2014-Nov-27 13:27N 52°25' E 004°50'0 0.0
2014-Nov-27 12:33N 52°25' E 004°50'0 0.0
2014-Nov-27 11:30N 52°25' E 004°50'0 0.0
2014-Nov-27 10:33N 52°25' E 004°50'0 0.0
2014-Nov-27 09:33N 52°25' E 004°50'0 0.0
2014-Nov-27 08:33N 52°25' E 004°50'0 0.0
2014-Nov-27 07:33N 52°25' E 004°50'0 0.0
2014-Nov-27 06:33N 52°25' E 004°50'0 0.0
2014-Nov-27 05:33N 52°25' E 004°50'0 0.0
2014-Nov-27 04:33N 52°25' E 004°50'0 0.0
2014-Nov-27 03:33N 52°25' E 004°50'0 0.0
2014-Nov-27 02:33N 52°25' E 004°50'0 0.0
2014-Nov-27 01:33N 52°25' E 004°50'0 0.0
2014-Nov-27 00:33N 52°25' E 004°50'0 0.0
2014-Nov-26 23:33N 52°25' E 004°50'0 0.0
2014-Nov-26 22:33N 52°25' E 004°50'0 0.0
2014-Nov-26 21:33N 52°25' E 004°50'0 0.0
2014-Nov-26 20:33N 52°25' E 004°50'0 0.0
2014-Nov-26 19:33N 52°25' E 004°50'0 0.0
2014-Nov-26 18:33N 52°25' E 004°50'0 0.0
2014-Nov-26 17:33N 52°25' E 004°50'0 0.0
2014-Nov-26 16:33N 52°25' E 004°50'0 0.0
2014-Nov-26 15:33N 52°25' E 004°50'0 0.0
2014-Nov-26 14:33N 52°25' E 004°50'0 0.0
2014-Nov-26 13:33N 52°25' E 004°50'0 0.0
2014-Nov-26 12:33N 52°25' E 004°50'0 0.0
2014-Nov-26 11:33N 52°25' E 004°50'0 0.0
2014-Nov-26 10:33N 52°25' E 004°50'0 0.0
2014-Nov-26 09:33N 52°25' E 004°50'0 0.0
2014-Nov-26 08:33N 52°25' E 004°50'0 0.0
2014-Nov-26 07:33N 52°25' E 004°50'0 0.0
2014-Nov-26 06:33N 52°25' E 004°50'0 0.0
2014-Nov-26 05:33N 52°25' E 004°50'0 0.0
2014-Nov-26 04:33N 52°25' E 004°50'0 0.0
2014-Nov-26 03:33N 52°25' E 004°50'0 0.0
2014-Nov-26 02:33N 52°25' E 004°50'0 0.0
2014-Nov-26 01:33N 52°25' E 004°50'0 0.0
2014-Nov-26 00:33N 52°25' E 004°50'0 0.0
2014-Nov-25 23:33N 52°25' E 004°50'0 0.0
2014-Nov-25 22:33N 52°25' E 004°50'0 0.0
2014-Nov-25 21:33N 52°25' E 004°50'0 0.0
2014-Nov-25 20:33N 52°25' E 004°50'0 0.0
2014-Nov-25 19:33N 52°25' E 004°50'0 0.0
2014-Nov-25 18:33N 52°25' E 004°50'0 0.0
2014-Nov-25 17:33N 52°25' E 004°50'0 0.0
2014-Nov-25 16:33N 52°25' E 004°50'0 0.0
2014-Nov-25 15:33N 52°25' E 004°50'0 0.0
2014-Nov-25 14:33N 52°25' E 004°50'0 0.0
2014-Nov-25 13:33N 52°25' E 004°50'0 0.0
2014-Nov-25 12:30N 52°25' E 004°50'0 0.0
2014-Nov-25 11:30N 52°25' E 004°50'0 0.0
2014-Nov-25 10:30N 52°25' E 004°50'0 0.0
2014-Nov-25 09:33N 52°25' E 004°50'0 0.0
2014-Nov-25 08:33N 52°25' E 004°50'0 0.0
2014-Nov-25 07:33N 52°25' E 004°50'0 0.0
2014-Nov-25 06:33N 52°25' E 004°50'0 0.0
2014-Nov-25 05:33N 52°25' E 004°50'0 0.0
2014-Nov-25 04:33N 52°25' E 004°50'0 0.0
2014-Nov-25 03:33N 52°25' E 004°50'0 0.0
2014-Nov-25 02:33N 52°25' E 004°50'0 0.0
2014-Nov-25 01:33N 52°25' E 004°50'0 0.0
2014-Nov-25 00:33N 52°25' E 004°50'0 0.0
2014-Nov-24 23:33N 52°25' E 004°50'0 0.0
2014-Nov-24 22:33N 52°25' E 004°50'0 0.0
2014-Nov-24 21:33N 52°25' E 004°50'0 0.0
2014-Nov-24 20:33N 52°25' E 004°50'0 0.0
2014-Nov-24 19:33N 52°25' E 004°50'0 0.0
2014-Nov-24 18:34N 52°25' E 004°50'3 3.4
2014-Nov-24 17:34N 52°26' E 004°45'6 5.7
2014-Nov-24 16:33N 52°28' E 004°36'3 3.2
2014-Nov-24 15:34N 52°28' E 004°31'7 7.3
2014-Nov-24 14:34N 52°29' E 004°19'2 2.1
2014-Nov-24 13:31N 52°32' E 004°20'0 0.1
2014-Nov-24 12:33N 52°32' E 004°20'0 0.0
2014-Nov-24 11:33N 52°32' E 004°20'2 2.2
2014-Nov-24 10:33N 52°29' E 004°19'8 8.0
2014-Nov-24 09:33N 52°29' E 004°06'1010.0
2014-Nov-24 08:33N 52°26' E 003°50'1110.3
2014-Nov-24 07:32N 52°24' E 003°33'4511.2
2014-Nov-24 03:29N 51°51' E 002°43'1212.3
2014-Nov-24 02:30N 51°42' E 002°30'1212.2
2014-Nov-24 01:33N 51°33' E 002°18'1111.5
2014-Nov-24 00:33N 51°23' E 002°10'1110.9
2014-Nov-23 23:33N 51°13' E 002°03'1111.2
2014-Nov-23 22:33N 51°08' E 001°47'9 9.4
2014-Nov-23 21:33N 51°01' E 001°36'8 8.0
2014-Nov-23 20:34N 50°55' E 001°28'7 6.8
2014-Nov-23 19:33N 50°48' E 001°25'8 7.4
2014-Nov-23 18:31N 50°41' E 001°20'8 8.4
2014-Nov-23 17:33N 50°36' E 001°10'9 8.5
2014-Nov-23 16:31N 50°30' E 001°00'8 8.6
2014-Nov-23 15:33N 50°27' E 000°48'10 9.0
2014-Nov-23 14:23N 50°25' E 000°32'  
Track history (hours):
 
Tides and Currents Weather Stations Pressure Air Temp Water Temp Dewpoint Dewpoint Depression Visibility Wind Speed Wind Dir Waves Ship Positions

Georg Jacob

Last reported at 2014-Dec-01 23:03 UTC. Time now 2014-Dec-20 20:52 UTC.
Position N 50°10' W 001°53'.
Warning: this ship's position is 18 days out of date.

Length 229 m; draft 13.5 m.

Type: Tanker. MMSI: 636092136.

Date/timePositionNaut miles runAvg speedWind from/ knotsBaromVisibWave heightAir tempDewpointWater temp
2014-Dec-01 23:03N 50°10' W 001°53'5912.9
2014-Dec-01 18:30N 50°26' W 000°24'1210.8
2014-Dec-01 17:21N 50°29' W 000°05'810.1
2014-Dec-01 16:30N 50°31' E 000°07'9 9.8
2014-Dec-01 15:33N 50°34' E 000°22'10 9.9
2014-Dec-01 14:33N 50°37' E 000°36'1111.2
2014-Dec-01 13:33N 50°44' E 000°50'1211.9
2014-Dec-01 12:32N 50°51' E 001°06'1211.9
2014-Dec-01 11:32N 50°59' E 001°19'1111.2
2014-Dec-01 10:33N 51°07' E 001°32'1010.3
2014-Dec-01 09:34N 51°13' E 001°45'10 9.8
2014-Dec-01 08:33N 51°22' E 001°51'10 9.8
2014-Dec-01 07:33N 51°30' E 001°60'1110.6
2014-Dec-01 06:33N 51°38' E 002°11'1211.1
2014-Dec-01 05:31N 51°47' E 002°24'1112.0
2014-Dec-01 04:34N 51°55' E 002°37'1212.3
2014-Dec-01 03:34N 52°04' E 002°50'1312.4
2014-Dec-01 02:33N 52°13' E 003°04'1212.1
2014-Dec-01 01:33N 52°22' E 003°18'1111.0
2014-Dec-01 00:32N 52°28' E 003°33'1111.0
2014-Nov-30 23:33N 52°31' E 003°50'1010.5
2014-Nov-30 22:33N 52°31' E 004°07'1010.2
2014-Nov-30 21:33N 52°29' E 004°24'8 7.8
2014-Nov-30 20:34N 52°28' E 004°36'1 1.0
2014-Nov-30 19:33N 52°28' E 004°38'6 6.4
2014-Nov-30 18:33N 52°25' E 004°48'2 1.6
2014-Nov-30 17:33N 52°25' E 004°50'0 0.0
2014-Nov-30 16:33N 52°25' E 004°50'0 0.0
2014-Nov-30 15:33N 52°25' E 004°50'0 0.0
2014-Nov-30 14:33N 52°25' E 004°50'0 0.0
2014-Nov-30 13:33N 52°25' E 004°50'0 0.0
2014-Nov-30 12:33N 52°25' E 004°50'0 0.0
2014-Nov-30 11:33N 52°25' E 004°50'0 0.0
2014-Nov-30 10:33N 52°25' E 004°50'0 0.0
2014-Nov-30 09:33N 52°25' E 004°50'0 0.0
2014-Nov-30 08:33N 52°25' E 004°50'0 0.0
2014-Nov-30 07:30N 52°25' E 004°50'0 0.0
2014-Nov-30 06:33N 52°25' E 004°50'0 0.0
2014-Nov-30 05:33N 52°25' E 004°50'0 0.0
2014-Nov-30 04:30N 52°25' E 004°50'0 0.0
2014-Nov-30 03:33N 52°25' E 004°50'0 0.0
2014-Nov-30 02:33N 52°25' E 004°50'0 0.0
2014-Nov-30 01:33N 52°25' E 004°50'0 0.0
2014-Nov-30 00:33N 52°25' E 004°50'0 0.0
2014-Nov-29 23:33N 52°25' E 004°50'0 0.0
2014-Nov-29 22:33N 52°25' E 004°50'0 0.0
2014-Nov-29 21:33N 52°25' E 004°50'0 0.0
2014-Nov-29 20:30N 52°25' E 004°50'0 0.0
2014-Nov-29 19:33N 52°25' E 004°50'0 0.0
2014-Nov-29 18:33N 52°25' E 004°50'0 0.0
2014-Nov-29 17:33N 52°25' E 004°50'0 0.0
2014-Nov-29 16:33N 52°25' E 004°50'0 0.0
2014-Nov-29 15:33N 52°25' E 004°50'0 0.0
2014-Nov-29 14:33N 52°25' E 004°50'0 0.0
2014-Nov-29 13:33N 52°25' E 004°50'0 0.0
2014-Nov-29 12:33N 52°25' E 004°50'0 0.0
2014-Nov-29 11:33N 52°25' E 004°50'0 0.0
2014-Nov-29 10:33N 52°25' E 004°50'0 0.0
2014-Nov-29 09:33N 52°25' E 004°50'0 0.0
2014-Nov-29 08:33N 52°25' E 004°50'0 0.0
2014-Nov-29 07:33N 52°25' E 004°50'0 0.0
2014-Nov-29 06:33N 52°25' E 004°50'0 0.0
2014-Nov-29 05:33N 52°25' E 004°50'0 0.0
2014-Nov-29 04:33N 52°25' E 004°50'0 0.0
2014-Nov-29 03:33N 52°25' E 004°50'0 0.0
2014-Nov-29 02:33N 52°25' E 004°50'0 0.0
2014-Nov-29 01:33N 52°25' E 004°50'0 0.0
2014-Nov-29 00:33N 52°25' E 004°50'0 0.0
2014-Nov-28 23:33N 52°25' E 004°50'0 0.0
2014-Nov-28 22:33N 52°25' E 004°50'0 0.0
2014-Nov-28 21:33N 52°25' E 004°50'0 0.0
2014-Nov-28 20:33N 52°25' E 004°50'0 0.0
2014-Nov-28 19:33N 52°25' E 004°50'0 0.0
2014-Nov-28 18:33N 52°25' E 004°50'0 0.0
2014-Nov-28 17:33N 52°25' E 004°50'0 0.0
2014-Nov-28 16:33N 52°25' E 004°50'0 0.0
2014-Nov-28 15:33N 52°25' E 004°50'0 0.0
2014-Nov-28 14:33N 52°25' E 004°50'0 0.0
2014-Nov-28 13:33N 52°25' E 004°50'0 0.0
2014-Nov-28 12:33N 52°25' E 004°50'0 0.0
2014-Nov-28 11:33N 52°25' E 004°50'0 0.0
2014-Nov-28 10:30N 52°25' E 004°50'0 0.0
2014-Nov-28 09:33N 52°25' E 004°50'0 0.0
2014-Nov-28 08:33N 52°25' E 004°50'0 0.0
2014-Nov-28 07:33N 52°25' E 004°50'0 0.0
2014-Nov-28 06:33N 52°25' E 004°50'0 0.0
2014-Nov-28 05:33N 52°25' E 004°50'0 0.0
2014-Nov-28 04:33N 52°25' E 004°50'0 0.0
2014-Nov-28 03:33N 52°25' E 004°50'0 0.0
2014-Nov-28 02:33N 52°25' E 004°50'0 0.0
2014-Nov-28 01:33N 52°25' E 004°50'0 0.0
2014-Nov-28 00:33N 52°25' E 004°50'0 0.0
2014-Nov-27 23:33N 52°25' E 004°50'0 0.0
2014-Nov-27 22:33N 52°25' E 004°50'0 0.0
2014-Nov-27 21:33N 52°25' E 004°50'0 0.0
2014-Nov-27 20:30N 52°25' E 004°50'0 0.0
2014-Nov-27 19:33N 52°25' E 004°50'0 0.0
2014-Nov-27 18:33N 52°25' E 004°50'0 0.0
2014-Nov-27 17:33N 52°25' E 004°50'0 0.0
2014-Nov-27 16:33N 52°25' E 004°50'0 0.0
2014-Nov-27 15:33N 52°25' E 004°50'0 0.0
2014-Nov-27 14:33N 52°25' E 004°50'0 0.0
2014-Nov-27 13:27N 52°25' E 004°50'0 0.0
2014-Nov-27 12:33N 52°25' E 004°50'0 0.0
2014-Nov-27 11:30N 52°25' E 004°50'0 0.0
2014-Nov-27 10:33N 52°25' E 004°50'0 0.0
2014-Nov-27 09:33N 52°25' E 004°50'0 0.0
2014-Nov-27 08:33N 52°25' E 004°50'0 0.0
2014-Nov-27 07:33N 52°25' E 004°50'0 0.0
2014-Nov-27 06:33N 52°25' E 004°50'0 0.0
2014-Nov-27 05:33N 52°25' E 004°50'0 0.0
2014-Nov-27 04:33N 52°25' E 004°50'0 0.0
2014-Nov-27 03:33N 52°25' E 004°50'0 0.0
2014-Nov-27 02:33N 52°25' E 004°50'0 0.0
2014-Nov-27 01:33N 52°25' E 004°50'0 0.0
2014-Nov-27 00:33N 52°25' E 004°50'0 0.0
2014-Nov-26 23:33N 52°25' E 004°50'0 0.0
2014-Nov-26 22:33N 52°25' E 004°50'0 0.0
2014-Nov-26 21:33N 52°25' E 004°50'0 0.0
2014-Nov-26 20:33N 52°25' E 004°50'0 0.0
2014-Nov-26 19:33N 52°25' E 004°50'0 0.0
2014-Nov-26 18:33N 52°25' E 004°50'0 0.0
2014-Nov-26 17:33N 52°25' E 004°50'0 0.0
2014-Nov-26 16:33N 52°25' E 004°50'0 0.0
2014-Nov-26 15:33N 52°25' E 004°50'0 0.0
2014-Nov-26 14:33N 52°25' E 004°50'0 0.0
2014-Nov-26 13:33N 52°25' E 004°50'0 0.0
2014-Nov-26 12:33N 52°25' E 004°50'0 0.0
2014-Nov-26 11:33N 52°25' E 004°50'0 0.0
2014-Nov-26 10:33N 52°25' E 004°50'0 0.0
2014-Nov-26 09:33N 52°25' E 004°50'0 0.0
2014-Nov-26 08:33N 52°25' E 004°50'0 0.0
2014-Nov-26 07:33N 52°25' E 004°50'0 0.0
2014-Nov-26 06:33N 52°25' E 004°50'0 0.0
2014-Nov-26 05:33N 52°25' E 004°50'0 0.0
2014-Nov-26 04:33N 52°25' E 004°50'0 0.0
2014-Nov-26 03:33N 52°25' E 004°50'0 0.0
2014-Nov-26 02:33N 52°25' E 004°50'0 0.0
2014-Nov-26 01:33N 52°25' E 004°50'0 0.0
2014-Nov-26 00:33N 52°25' E 004°50'0 0.0
2014-Nov-25 23:33N 52°25' E 004°50'0 0.0
2014-Nov-25 22:33N 52°25' E 004°50'0 0.0
2014-Nov-25 21:33N 52°25' E 004°50'0 0.0
2014-Nov-25 20:33N 52°25' E 004°50'0 0.0
2014-Nov-25 19:33N 52°25' E 004°50'0 0.0
2014-Nov-25 18:33N 52°25' E 004°50'0 0.0
2014-Nov-25 17:33N 52°25' E 004°50'0 0.0
2014-Nov-25 16:33N 52°25' E 004°50'0 0.0
2014-Nov-25 15:33N 52°25' E 004°50'0 0.0
2014-Nov-25 14:33N 52°25' E 004°50'0 0.0
2014-Nov-25 13:33N 52°25' E 004°50'0 0.0
2014-Nov-25 12:30N 52°25' E 004°50'0 0.0
2014-Nov-25 11:30N 52°25' E 004°50'0 0.0
2014-Nov-25 10:30N 52°25' E 004°50'0 0.0
2014-Nov-25 09:33N 52°25' E 004°50'0 0.0
2014-Nov-25 08:33N 52°25' E 004°50'0 0.0
2014-Nov-25 07:33N 52°25' E 004°50'0 0.0
2014-Nov-25 06:33N 52°25' E 004°50'0 0.0
2014-Nov-25 05:33N 52°25' E 004°50'0 0.0
2014-Nov-25 04:33N 52°25' E 004°50'0 0.0
2014-Nov-25 03:33N 52°25' E 004°50'0 0.0
2014-Nov-25 02:33N 52°25' E 004°50'0 0.0
2014-Nov-25 01:33N 52°25' E 004°50'0 0.0
2014-Nov-25 00:33N 52°25' E 004°50'0 0.0
2014-Nov-24 23:33N 52°25' E 004°50'0 0.0
2014-Nov-24 22:33N 52°25' E 004°50'0 0.0
2014-Nov-24 21:33N 52°25' E 004°50'0 0.0
2014-Nov-24 20:33N 52°25' E 004°50'0 0.0
2014-Nov-24 19:33N 52°25' E 004°50'0 0.0
2014-Nov-24 18:34N 52°25' E 004°50'3 3.4
2014-Nov-24 17:34N 52°26' E 004°45'6 5.7
2014-Nov-24 16:33N 52°28' E 004°36'3 3.2
2014-Nov-24 15:34N 52°28' E 004°31'7 7.3
2014-Nov-24 14:34N 52°29' E 004°19'2 2.1
2014-Nov-24 13:31N 52°32' E 004°20'0 0.1
2014-Nov-24 12:33N 52°32' E 004°20'0 0.0
2014-Nov-24 11:33N 52°32' E 004°20'2 2.2
2014-Nov-24 10:33N 52°29' E 004°19'8 8.0
2014-Nov-24 09:33N 52°29' E 004°06'1010.0
2014-Nov-24 08:33N 52°26' E 003°50'1110.3
2014-Nov-24 07:32N 52°24' E 003°33'4511.2
2014-Nov-24 03:29N 51°51' E 002°43'1212.3
2014-Nov-24 02:30N 51°42' E 002°30'1212.2
2014-Nov-24 01:33N 51°33' E 002°18'1111.5
2014-Nov-24 00:33N 51°23' E 002°10'1110.9
2014-Nov-23 23:33N 51°13' E 002°03'1111.2
2014-Nov-23 22:33N 51°08' E 001°47'9 9.4
2014-Nov-23 21:33N 51°01' E 001°36'8 8.0
2014-Nov-23 20:34N 50°55' E 001°28'7 6.8
2014-Nov-23 19:33N 50°48' E 001°25'8 7.4
2014-Nov-23 18:31N 50°41' E 001°20'8 8.4
2014-Nov-23 17:33N 50°36' E 001°10'9 8.5
2014-Nov-23 16:31N 50°30' E 001°00'8 8.6
2014-Nov-23 15:33N 50°27' E 000°48'10 9.0
2014-Nov-23 14:23N 50°25' E 000°32'  

Dump ship's entire track history